Marlow, OK

5:51 AM CST on February 28, 2017 (GMT -0600)
Marlow West | | Change Station
Active Advisory: Fire Weather Watch

Elev 1299 ft 34.64 °N, 97.97 °W | Updated 15 seconds ago

Partly Cloudy
Partly Cloudy
63.1 °F
Feels Like 63.1 °F
N
12.3
Wind Variable Wind from SSE
Gusts 15.0 mph

Today
High -- | Low -- °F
--% Chance of Precip.
Yesterday
High -- | Low -- °F
Precip. -- in
Pressure 29.77 in
Visibility 9.0 miles
Clouds Clear
Dew Point 52 °F
Humidity 66%
Rainfall 0.00 in
Snow Depth Not available.
7:01 AM 6:27 PM
Waxing Crescent, 4% visible
METAR KFSI 281058Z AUTO 18005KT 9SM CLR 14/14 A2978 RMK AO2 SLP079 T01440144
Pressure 29.77 in
Visibility 9.0 miles
Clouds Clear
Dew Point 52 °F
Humidity 66%
Rainfall 0.00 in
Snow Depth Not available.
7:01 AM 6:27 PM
Waxing Crescent, 4% visible
METAR KFSI 281058Z AUTO 18005KT 9SM CLR 14/14 A2978 RMK AO2 SLP079 T01440144

Get Your Daily Forecast Email!

Thanks for signing up!

Be on the lookout for a verification email in your inbox.

You'll start receiving the daily forecast at 8 AM.

×

10-Day Weather Forecast

Almanac

Astronomy

Feb. 28, 2017 Rise Set
Actual Time
Civil Twilight
Nautical Twilight
Astronomical Twilight
Moon
Length of Visible Light
Length of Day
Tomorrow will be .
, % of the Moon is Illuminated

Today's Extremes

State Highs State Lows

Community

WunderPhotos

Upload Photos

1,962,540 photos uploaded!

WunderBlog® & News

Nearby

Air Quality

  Air Quality AQ Index Pollutant
Not available.

Snow Depth

Station Depth Elevation

Earthquake Activity

City Distance Mag. Time & Date
Minimum magnitude displayed is 2.5.

Coastal Water Temperatures

Place Temperature

Stations

Nearby Weather Stations

Station Location Temp. Windchill Dew Point Humidity Wind Precip. Elev Updated Type
                   

Watches & Warnings

Fire Weather Watch
Issued: 4:28 AM CST Feb. 28, 2017 – National Weather Service

... Fire Weather Watch remains in effect from noon CST today
through this evening for windy conditions... warm temperatures
and low relative humidity for portions of western and north
central Oklahoma and western North Texas...

* timing... Tuesday afternoon through Tuesday evening.

* Wind... west-southwest at 15 to 30 mph, with gusts to 35 to 45 mph.

* Humidity... 20 to 35 percent.

* Temperature... mid 70s to low 80s.

* Impacts... any fires that develop will likely spread rapidly.
Outdoor burning is not recommended.

* Other impacts... a wind shift will move across the area
Tuesday evening into Tuesday night with northwest winds 15-25
mph and higher gusts. This could cause problems for any
ongoing firefighting efforts.

Precautionary/preparedness actions...

A Fire Weather Watch means that critical fire weather conditions
are forecast to occur. Listen for later forecasts and possible
red flag warnings.



Kurtz